sensor_id;sensor_type;location;lat;lon;timestamp;temperature;humidity
10828;DHT22;5467;59.334;13.512;2022-09-03T00:00:15;11.60;99.90
10828;DHT22;5467;59.334;13.512;2022-09-03T00:02:45;11.70;99.90
10828;DHT22;5467;59.334;13.512;2022-09-03T00:05:21;11.60;99.90
10828;DHT22;5467;59.334;13.512;2022-09-03T00:07:58;11.60;99.90
10828;DHT22;5467;59.334;13.512;2022-09-03T00:10:32;11.60;99.90
10828;DHT22;5467;59.334;13.512;2022-09-03T00:13:04;11.60;99.90
10828;DHT22;5467;59.334;13.512;2022-09-03T00:15:33;11.60;99.90
10828;DHT22;5467;59.334;13.512;2022-09-03T00:18:04;11.60;99.90
10828;DHT22;5467;59.334;13.512;2022-09-03T00:20:35;11.70;99.90
10828;DHT22;5467;59.334;13.512;2022-09-03T00:23:07;11.70;99.90
10828;DHT22;5467;59.334;13.512;2022-09-03T00:25:38;11.70;99.90
10828;DHT22;5467;59.334;13.512;2022-09-03T00:28:11;11.70;99.90
10828;DHT22;5467;59.334;13.512;2022-09-03T00:30:41;11.70;99.90
10828;DHT22;5467;59.334;13.512;2022-09-03T00:33:11;11.70;99.90
10828;DHT22;5467;59.334;13.512;2022-09-03T00:35:43;11.70;99.90
10828;DHT22;5467;59.334;13.512;2022-09-03T00:38:14;11.70;99.90
10828;DHT22;5467;59.334;13.512;2022-09-03T00:41:00;11.60;99.90
10828;DHT22;5467;59.334;13.512;2022-09-03T00:43:50;11.60;99.90
10828;DHT22;5467;59.334;13.512;2022-09-03T00:46:23;11.80;99.90
10828;DHT22;5467;59.334;13.512;2022-09-03T00:49:06;11.70;99.90
10828;DHT22;5467;59.334;13.512;2022-09-03T00:51:42;11.70;99.90
10828;DHT22;5467;59.334;13.512;2022-09-03T00:54:18;11.70;99.90
10828;DHT22;5467;59.334;13.512;2022-09-03T00:56:54;11.70;99.90
10828;DHT22;5467;59.334;13.512;2022-09-03T00:59:34;11.80;99.90
10828;DHT22;5467;59.334;13.512;2022-09-03T01:02:13;11.80;99.90
10828;DHT22;5467;59.334;13.512;2022-09-03T01:04:52;11.80;99.90
10828;DHT22;5467;59.334;13.512;2022-09-03T01:07:29;11.70;99.90
10828;DHT22;5467;59.334;13.512;2022-09-03T01:10:08;11.70;99.90
10828;DHT22;5467;59.334;13.512;2022-09-03T01:12:45;11.70;99.90
10828;DHT22;5467;59.334;13.512;2022-09-03T01:15:18;11.70;99.90
10828;DHT22;5467;59.334;13.512;2022-09-03T01:17:58;11.70;99.90
10828;DHT22;5467;59.334;13.512;2022-09-03T01:20:42;11.70;99.90
10828;DHT22;5467;59.334;13.512;2022-09-03T01:23:37;11.60;99.90
10828;DHT22;5467;59.334;13.512;2022-09-03T01:26:30;11.40;99.90
10828;DHT22;5467;59.334;13.512;2022-09-03T01:29:10;11.40;99.90
10828;DHT22;5467;59.334;13.512;2022-09-03T01:31:48;11.40;99.90
10828;DHT22;5467;59.334;13.512;2022-09-03T01:34:23;11.50;99.90
10828;DHT22;5467;59.334;13.512;2022-09-03T01:37:01;11.70;99.90
10828;DHT22;5467;59.334;13.512;2022-09-03T01:39:40;11.70;99.90
10828;DHT22;5467;59.334;13.512;2022-09-03T01:42:19;11.70;99.90
10828;DHT22;5467;59.334;13.512;2022-09-03T01:45:10;11.70;99.90
10828;DHT22;5467;59.334;13.512;2022-09-03T01:47:51;11.70;99.90
10828;DHT22;5467;59.334;13.512;2022-09-03T01:50:29;11.70;99.90
10828;DHT22;5467;59.334;13.512;2022-09-03T01:53:04;11.70;99.90
10828;DHT22;5467;59.334;13.512;2022-09-03T01:55:43;11.60;99.90
10828;DHT22;5467;59.334;13.512;2022-09-03T01:58:16;11.60;99.90
10828;DHT22;5467;59.334;13.512;2022-09-03T02:00:50;11.60;99.90
10828;DHT22;5467;59.334;13.512;2022-09-03T02:03:20;11.60;99.90
10828;DHT22;5467;59.334;13.512;2022-09-03T02:05:48;11.60;99.90
10828;DHT22;5467;59.334;13.512;2022-09-03T02:08:18;11.50;99.90
10828;DHT22;5467;59.334;13.512;2022-09-03T02:10:48;11.50;99.90
10828;DHT22;5467;59.334;13.512;2022-09-03T02:13:19;11.40;99.90
10828;DHT22;5467;59.334;13.512;2022-09-03T02:15:50;11.30;99.90
10828;DHT22;5467;59.334;13.512;2022-09-03T02:18:22;11.30;99.90
10828;DHT22;5467;59.334;13.512;2022-09-03T02:20:52;11.20;99.90
10828;DHT22;5467;59.334;13.512;2022-09-03T02:23:19;11.20;99.90
10828;DHT22;5467;59.334;13.512;2022-09-03T02:25:51;11.20;99.90
10828;DHT22;5467;59.334;13.512;2022-09-03T02:28:21;11.20;99.90
10828;DHT22;5467;59.334;13.512;2022-09-03T02:30:51;11.30;99.90
10828;DHT22;5467;59.334;13.512;2022-09-03T02:33:19;11.20;99.90
10828;DHT22;5467;59.334;13.512;2022-09-03T02:35:46;11.20;99.90
10828;DHT22;5467;59.334;13.512;2022-09-03T02:38:16;11.10;99.90
10828;DHT22;5467;59.334;13.512;2022-09-03T02:40:43;11.10;99.90
10828;DHT22;5467;59.334;13.512;2022-09-03T02:43:16;11.00;99.90
10828;DHT22;5467;59.334;13.512;2022-09-03T02:45:46;11.00;99.90
10828;DHT22;5467;59.334;13.512;2022-09-03T02:48:17;11.00;99.90
10828;DHT22;5467;59.334;13.512;2022-09-03T02:50:46;11.10;99.90
10828;DHT22;5467;59.334;13.512;2022-09-03T02:53:13;11.10;99.90
10828;DHT22;5467;59.334;13.512;2022-09-03T02:55:40;11.20;99.90
10828;DHT22;5467;59.334;13.512;2022-09-03T02:58:07;11.20;99.90
10828;DHT22;5467;59.334;13.512;2022-09-03T03:00:34;11.40;99.90
10828;DHT22;5467;59.334;13.512;2022-09-03T03:03:02;11.50;99.90
10828;DHT22;5467;59.334;13.512;2022-09-03T03:05:39;11.50;99.90
10828;DHT22;5467;59.334;13.512;2022-09-03T03:08:07;11.60;99.90
10828;DHT22;5467;59.334;13.512;2022-09-03T03:10:34;11.60;99.90
10828;DHT22;5467;59.334;13.512;2022-09-03T03:13:02;11.60;99.90
10828;DHT22;5467;59.334;13.512;2022-09-03T03:15:29;11.50;99.90
10828;DHT22;5467;59.334;13.512;2022-09-03T03:17:56;11.50;99.90
10828;DHT22;5467;59.334;13.512;2022-09-03T03:20:24;11.60;99.90
10828;DHT22;5467;59.334;13.512;2022-09-03T03:22:52;11.60;99.90
10828;DHT22;5467;59.334;13.512;2022-09-03T03:25:19;11.60;99.90
10828;DHT22;5467;59.334;13.512;2022-09-03T03:27:46;11.60;99.90
10828;DHT22;5467;59.334;13.512;2022-09-03T03:30:13;11.50;99.90
10828;DHT22;5467;59.334;13.512;2022-09-03T03:32:40;11.50;99.90
10828;DHT22;5467;59.334;13.512;2022-09-03T03:35:07;11.50;99.90
10828;DHT22;5467;59.334;13.512;2022-09-03T03:37:36;11.50;99.90
10828;DHT22;5467;59.334;13.512;2022-09-03T03:40:05;11.40;99.90
10828;DHT22;5467;59.334;13.512;2022-09-03T03:42:32;11.40;99.90
10828;DHT22;5467;59.334;13.512;2022-09-03T03:45:00;11.30;99.90
10828;DHT22;5467;59.334;13.512;2022-09-03T03:47:27;11.30;99.90
10828;DHT22;5467;59.334;13.512;2022-09-03T03:49:55;11.30;99.90
10828;DHT22;5467;59.334;13.512;2022-09-03T03:52:22;11.30;99.90
10828;DHT22;5467;59.334;13.512;2022-09-03T03:54:50;11.30;99.90
10828;DHT22;5467;59.334;13.512;2022-09-03T03:57:19;11.40;99.90
10828;DHT22;5467;59.334;13.512;2022-09-03T03:59:46;11.40;99.90
10828;DHT22;5467;59.334;13.512;2022-09-03T04:02:14;11.50;99.90
10828;DHT22;5467;59.334;13.512;2022-09-03T04:04:41;11.60;99.90
10828;DHT22;5467;59.334;13.512;2022-09-03T04:07:08;11.60;99.90
10828;DHT22;5467;59.334;13.512;2022-09-03T04:09:35;11.60;99.90
10828;DHT22;5467;59.334;13.512;2022-09-03T04:12:03;11.50;99.90
10828;DHT22;5467;59.334;13.512;2022-09-03T04:14:34;11.50;99.90
10828;DHT22;5467;59.334;13.512;2022-09-03T04:17:01;11.50;99.90
10828;DHT22;5467;59.334;13.512;2022-09-03T04:19:29;11.50;99.90
10828;DHT22;5467;59.334;13.512;2022-09-03T04:21:56;11.50;99.90
10828;DHT22;5467;59.334;13.512;2022-09-03T04:24:23;11.50;99.90
10828;DHT22;5467;59.334;13.512;2022-09-03T04:26:50;11.50;99.90
10828;DHT22;5467;59.334;13.512;2022-09-03T04:29:18;11.50;99.90
10828;DHT22;5467;59.334;13.512;2022-09-03T04:31:47;11.50;99.90
10828;DHT22;5467;59.334;13.512;2022-09-03T04:34:28;11.50;99.90
10828;DHT22;5467;59.334;13.512;2022-09-03T04:36:55;11.50;99.90
10828;DHT22;5467;59.334;13.512;2022-09-03T04:39:23;11.50;99.90
10828;DHT22;5467;59.334;13.512;2022-09-03T04:41:50;11.50;99.90
10828;DHT22;5467;59.334;13.512;2022-09-03T04:44:17;11.50;99.90
10828;DHT22;5467;59.334;13.512;2022-09-03T04:46:44;11.50;99.90
10828;DHT22;5467;59.334;13.512;2022-09-03T04:49:13;11.40;99.90
10828;DHT22;5467;59.334;13.512;2022-09-03T04:51:41;11.40;99.90
10828;DHT22;5467;59.334;13.512;2022-09-03T04:54:09;11.40;99.90
10828;DHT22;5467;59.334;13.512;2022-09-03T04:56:38;11.40;99.90
10828;DHT22;5467;59.334;13.512;2022-09-03T04:59:06;11.50;99.90
10828;DHT22;5467;59.334;13.512;2022-09-03T05:01:35;11.50;99.90
10828;DHT22;5467;59.334;13.512;2022-09-03T05:04:03;11.50;99.90
10828;DHT22;5467;59.334;13.512;2022-09-03T05:06:33;11.70;99.90
10828;DHT22;5467;59.334;13.512;2022-09-03T05:09:01;11.70;99.90
10828;DHT22;5467;59.334;13.512;2022-09-03T05:11:29;11.90;99.90
10828;DHT22;5467;59.334;13.512;2022-09-03T05:13:58;12.10;99.90
10828;DHT22;5467;59.334;13.512;2022-09-03T05:16:26;12.30;99.90
10828;DHT22;5467;59.334;13.512;2022-09-03T05:18:55;12.40;99.90
10828;DHT22;5467;59.334;13.512;2022-09-03T05:21:24;12.40;99.90
10828;DHT22;5467;59.334;13.512;2022-09-03T05:23:53;12.40;99.90
10828;DHT22;5467;59.334;13.512;2022-09-03T05:26:22;12.50;99.90
10828;DHT22;5467;59.334;13.512;2022-09-03T05:28:53;12.60;99.90
10828;DHT22;5467;59.334;13.512;2022-09-03T05:31:21;12.70;99.90
10828;DHT22;5467;59.334;13.512;2022-09-03T05:33:52;12.50;99.90
10828;DHT22;5467;59.334;13.512;2022-09-03T05:36:20;12.70;99.90
10828;DHT22;5467;59.334;13.512;2022-09-03T05:38:48;12.80;99.90
10828;DHT22;5467;59.334;13.512;2022-09-03T05:41:17;12.90;99.90
10828;DHT22;5467;59.334;13.512;2022-09-03T05:43:46;12.90;99.90
10828;DHT22;5467;59.334;13.512;2022-09-03T05:46:16;13.00;99.90
10828;DHT22;5467;59.334;13.512;2022-09-03T05:48:43;13.10;99.90
10828;DHT22;5467;59.334;13.512;2022-09-03T05:51:13;13.20;99.90
10828;DHT22;5467;59.334;13.512;2022-09-03T05:53:42;13.30;99.90
10828;DHT22;5467;59.334;13.512;2022-09-03T05:56:11;13.40;99.90
10828;DHT22;5467;59.334;13.512;2022-09-03T05:58:41;13.50;99.90
10828;DHT22;5467;59.334;13.512;2022-09-03T06:01:11;13.40;99.90
10828;DHT22;5467;59.334;13.512;2022-09-03T06:03:40;13.50;99.90
10828;DHT22;5467;59.334;13.512;2022-09-03T06:06:07;13.50;99.90
10828;DHT22;5467;59.334;13.512;2022-09-03T06:08:36;13.60;99.90
10828;DHT22;5467;59.334;13.512;2022-09-03T06:11:03;13.60;99.90
10828;DHT22;5467;59.334;13.512;2022-09-03T06:13:31;13.50;99.90
10828;DHT22;5467;59.334;13.512;2022-09-03T06:16:01;13.40;99.90
10828;DHT22;5467;59.334;13.512;2022-09-03T06:18:29;13.40;99.90
10828;DHT22;5467;59.334;13.512;2022-09-03T06:20:58;13.40;99.90
10828;DHT22;5467;59.334;13.512;2022-09-03T06:23:25;14.60;99.90
10828;DHT22;5467;59.334;13.512;2022-09-03T06:26:00;13.30;99.90
10828;DHT22;5467;59.334;13.512;2022-09-03T06:28:27;13.30;99.90
10828;DHT22;5467;59.334;13.512;2022-09-03T06:30:57;13.40;99.90
10828;DHT22;5467;59.334;13.512;2022-09-03T06:33:26;13.40;99.90
10828;DHT22;5467;59.334;13.512;2022-09-03T06:35:55;13.40;99.90
10828;DHT22;5467;59.334;13.512;2022-09-03T06:38:25;13.40;99.90
10828;DHT22;5467;59.334;13.512;2022-09-03T06:40:53;13.40;99.90
10828;DHT22;5467;59.334;13.512;2022-09-03T06:43:20;13.40;99.90
10828;DHT22;5467;59.334;13.512;2022-09-03T06:45:55;13.40;99.90
10828;DHT22;5467;59.334;13.512;2022-09-03T06:48:22;13.30;99.90
10828;DHT22;5467;59.334;13.512;2022-09-03T06:50:55;13.30;99.90
10828;DHT22;5467;59.334;13.512;2022-09-03T06:53:24;13.40;99.90
10828;DHT22;5467;59.334;13.512;2022-09-03T06:55:55;13.40;99.90
10828;DHT22;5467;59.334;13.512;2022-09-03T06:58:23;13.30;99.90
10828;DHT22;5467;59.334;13.512;2022-09-03T07:00:50;13.40;99.90
10828;DHT22;5467;59.334;13.512;2022-09-03T07:03:19;13.40;99.90
10828;DHT22;5467;59.334;13.512;2022-09-03T07:05:46;13.40;99.90
10828;DHT22;5467;59.334;13.512;2022-09-03T07:08:15;13.30;99.90
10828;DHT22;5467;59.334;13.512;2022-09-03T07:10:45;13.30;99.90
10828;DHT22;5467;59.334;13.512;2022-09-03T07:13:13;13.30;99.90
10828;DHT22;5467;59.334;13.512;2022-09-03T07:15:40;13.40;99.90
10828;DHT22;5467;59.334;13.512;2022-09-03T07:18:07;13.50;99.90
10828;DHT22;5467;59.334;13.512;2022-09-03T07:20:34;13.40;99.90
10828;DHT22;5467;59.334;13.512;2022-09-03T07:23:02;13.40;99.90
10828;DHT22;5467;59.334;13.512;2022-09-03T07:25:30;13.30;99.90
10828;DHT22;5467;59.334;13.512;2022-09-03T07:27:57;13.30;99.90
10828;DHT22;5467;59.334;13.512;2022-09-03T07:30:24;13.30;99.90
10828;DHT22;5467;59.334;13.512;2022-09-03T07:32:52;13.30;99.90
10828;DHT22;5467;59.334;13.512;2022-09-03T07:35:19;13.30;99.90
10828;DHT22;5467;59.334;13.512;2022-09-03T07:37:50;13.20;99.90
10828;DHT22;5467;59.334;13.512;2022-09-03T07:40:17;13.20;99.90
10828;DHT22;5467;59.334;13.512;2022-09-03T07:42:46;13.20;99.90
10828;DHT22;5467;59.334;13.512;2022-09-03T07:45:14;13.30;99.90
10828;DHT22;5467;59.334;13.512;2022-09-03T07:47:47;13.30;99.90
10828;DHT22;5467;59.334;13.512;2022-09-03T07:50:15;13.30;99.90
10828;DHT22;5467;59.334;13.512;2022-09-03T07:52:42;13.30;99.90
10828;DHT22;5467;59.334;13.512;2022-09-03T07:55:09;13.30;99.90
10828;DHT22;5467;59.334;13.512;2022-09-03T07:57:37;13.60;99.90
10828;DHT22;5467;59.334;13.512;2022-09-03T08:00:07;13.60;99.90
10828;DHT22;5467;59.334;13.512;2022-09-03T08:02:34;13.60;99.90
10828;DHT22;5467;59.334;13.512;2022-09-03T08:05:01;13.60;99.90
10828;DHT22;5467;59.334;13.512;2022-09-03T08:07:28;13.70;99.90
10828;DHT22;5467;59.334;13.512;2022-09-03T08:09:56;13.70;99.90
10828;DHT22;5467;59.334;13.512;2022-09-03T08:12:23;13.70;99.90
10828;DHT22;5467;59.334;13.512;2022-09-03T08:14:50;13.70;99.90
10828;DHT22;5467;59.334;13.512;2022-09-03T08:17:18;13.60;99.90
10828;DHT22;5467;59.334;13.512;2022-09-03T08:19:45;13.50;99.90
10828;DHT22;5467;59.334;13.512;2022-09-03T08:22:12;13.40;99.90
10828;DHT22;5467;59.334;13.512;2022-09-03T08:24:39;13.40;99.90
10828;DHT22;5467;59.334;13.512;2022-09-03T08:27:07;13.50;99.90
10828;DHT22;5467;59.334;13.512;2022-09-03T08:29:34;13.50;99.90
10828;DHT22;5467;59.334;13.512;2022-09-03T08:32:03;13.50;99.90
10828;DHT22;5467;59.334;13.512;2022-09-03T08:34:31;13.50;99.90
10828;DHT22;5467;59.334;13.512;2022-09-03T08:36:58;13.40;99.90
10828;DHT22;5467;59.334;13.512;2022-09-03T08:39:26;13.50;99.90
10828;DHT22;5467;59.334;13.512;2022-09-03T08:42:15;13.50;99.90
10828;DHT22;5467;59.334;13.512;2022-09-03T08:44:46;13.60;99.90
10828;DHT22;5467;59.334;13.512;2022-09-03T08:47:19;13.70;99.90
10828;DHT22;5467;59.334;13.512;2022-09-03T08:49:51;13.60;99.90
10828;DHT22;5467;59.334;13.512;2022-09-03T08:52:25;13.50;99.90
10828;DHT22;5467;59.334;13.512;2022-09-03T08:54:59;13.60;99.90
10828;DHT22;5467;59.334;13.512;2022-09-03T08:57:34;13.60;99.90
10828;DHT22;5467;59.334;13.512;2022-09-03T09:00:03;13.70;99.90
10828;DHT22;5467;59.334;13.512;2022-09-03T09:02:37;13.60;99.90
10828;DHT22;5467;59.334;13.512;2022-09-03T09:05:12;13.60;99.90
10828;DHT22;5467;59.334;13.512;2022-09-03T09:07:46;13.60;99.90
10828;DHT22;5467;59.334;13.512;2022-09-03T09:10:21;13.60;99.90
10828;DHT22;5467;59.334;13.512;2022-09-03T09:13:02;13.70;99.90
10828;DHT22;5467;59.334;13.512;2022-09-03T09:15:38;13.70;99.90
10828;DHT22;5467;59.334;13.512;2022-09-03T09:18:13;13.70;99.90
10828;DHT22;5467;59.334;13.512;2022-09-03T09:20:47;13.60;99.90
10828;DHT22;5467;59.334;13.512;2022-09-03T09:23:18;13.60;99.90
10828;DHT22;5467;59.334;13.512;2022-09-03T09:25:50;13.60;99.90
10828;DHT22;5467;59.334;13.512;2022-09-03T09:28:19;13.60;99.90
10828;DHT22;5467;59.334;13.512;2022-09-03T09:30:47;13.60;99.90
10828;DHT22;5467;59.334;13.512;2022-09-03T09:33:15;13.70;99.90
10828;DHT22;5467;59.334;13.512;2022-09-03T09:35:44;13.70;99.90
10828;DHT22;5467;59.334;13.512;2022-09-03T09:38:13;13.70;99.90
10828;DHT22;5467;59.334;13.512;2022-09-03T09:40:42;13.60;99.90
10828;DHT22;5467;59.334;13.512;2022-09-03T09:43:11;13.60;99.90
10828;DHT22;5467;59.334;13.512;2022-09-03T09:45:42;13.60;99.90
10828;DHT22;5467;59.334;13.512;2022-09-03T09:48:16;13.60;99.90
10828;DHT22;5467;59.334;13.512;2022-09-03T09:50:45;13.50;99.90
10828;DHT22;5467;59.334;13.512;2022-09-03T09:53:16;13.60;99.90
10828;DHT22;5467;59.334;13.512;2022-09-03T09:55:53;13.60;99.90
10828;DHT22;5467;59.334;13.512;2022-09-03T09:58:21;13.60;99.90
10828;DHT22;5467;59.334;13.512;2022-09-03T10:01:01;13.60;99.90
10828;DHT22;5467;59.334;13.512;2022-09-03T10:03:31;13.50;99.90
10828;DHT22;5467;59.334;13.512;2022-09-03T10:06:07;13.50;99.90
10828;DHT22;5467;59.334;13.512;2022-09-03T10:08:54;13.50;99.90
10828;DHT22;5467;59.334;13.512;2022-09-03T10:11:31;13.40;99.90
10828;DHT22;5467;59.334;13.512;2022-09-03T10:14:03;13.30;99.90
10828;DHT22;5467;59.334;13.512;2022-09-03T10:16:36;13.30;99.90
10828;DHT22;5467;59.334;13.512;2022-09-03T10:19:10;13.30;99.90
10828;DHT22;5467;59.334;13.512;2022-09-03T10:21:46;13.40;99.90
10828;DHT22;5467;59.334;13.512;2022-09-03T10:24:31;13.50;99.90
10828;DHT22;5467;59.334;13.512;2022-09-03T10:26:59;13.30;99.90
10828;DHT22;5467;59.334;13.512;2022-09-03T10:29:26;13.30;99.90
10828;DHT22;5467;59.334;13.512;2022-09-03T10:32:01;13.30;99.90
10828;DHT22;5467;59.334;13.512;2022-09-03T10:34:36;13.30;99.90
10828;DHT22;5467;59.334;13.512;2022-09-03T10:37:15;13.30;99.90
10828;DHT22;5467;59.334;13.512;2022-09-03T10:39:59;13.30;99.90
10828;DHT22;5467;59.334;13.512;2022-09-03T10:42:40;13.30;99.90
10828;DHT22;5467;59.334;13.512;2022-09-03T10:45:17;13.30;99.90
10828;DHT22;5467;59.334;13.512;2022-09-03T10:50:46;13.30;99.90
10828;DHT22;5467;59.334;13.512;2022-09-03T10:53:24;13.30;99.90
10828;DHT22;5467;59.334;13.512;2022-09-03T10:55:59;13.40;99.90
10828;DHT22;5467;59.334;13.512;2022-09-03T10:58:42;13.40;99.90
10828;DHT22;5467;59.334;13.512;2022-09-03T11:01:17;13.30;99.90
10828;DHT22;5467;59.334;13.512;2022-09-03T11:03:48;13.20;99.90
10828;DHT22;5467;59.334;13.512;2022-09-03T11:06:22;13.10;99.90
10828;DHT22;5467;59.334;13.512;2022-09-03T11:08:55;13.00;99.90
10828;DHT22;5467;59.334;13.512;2022-09-03T11:11:30;13.00;99.90
10828;DHT22;5467;59.334;13.512;2022-09-03T11:14:02;12.90;99.90
10828;DHT22;5467;59.334;13.512;2022-09-03T11:16:32;13.00;99.90
10828;DHT22;5467;59.334;13.512;2022-09-03T11:19:04;13.00;99.90
10828;DHT22;5467;59.334;13.512;2022-09-03T11:21:33;13.10;99.90
10828;DHT22;5467;59.334;13.512;2022-09-03T11:24:11;13.10;99.90
10828;DHT22;5467;59.334;13.512;2022-09-03T11:26:39;13.20;99.90
10828;DHT22;5467;59.334;13.512;2022-09-03T11:29:14;13.10;99.90
10828;DHT22;5467;59.334;13.512;2022-09-03T11:31:54;13.00;99.90
10828;DHT22;5467;59.334;13.512;2022-09-03T11:34:28;13.10;99.90
10828;DHT22;5467;59.334;13.512;2022-09-03T11:37:17;13.20;99.90
10828;DHT22;5467;59.334;13.512;2022-09-03T11:39:53;13.40;99.90
10828;DHT22;5467;59.334;13.512;2022-09-03T11:42:27;13.40;99.90
10828;DHT22;5467;59.334;13.512;2022-09-03T11:44:59;13.50;99.90
10828;DHT22;5467;59.334;13.512;2022-09-03T11:47:38;13.50;99.90
10828;DHT22;5467;59.334;13.512;2022-09-03T11:50:17;13.50;99.90
10828;DHT22;5467;59.334;13.512;2022-09-03T11:52:46;13.50;99.90
10828;DHT22;5467;59.334;13.512;2022-09-03T11:55:26;13.40;99.90
10828;DHT22;5467;59.334;13.512;2022-09-03T11:57:55;13.50;99.90
10828;DHT22;5467;59.334;13.512;2022-09-03T12:00:23;13.60;99.90
10828;DHT22;5467;59.334;13.512;2022-09-03T12:02:55;13.60;99.90
10828;DHT22;5467;59.334;13.512;2022-09-03T12:05:31;13.60;99.90
10828;DHT22;5467;59.334;13.512;2022-09-03T12:08:24;13.60;99.90
10828;DHT22;5467;59.334;13.512;2022-09-03T12:11:06;13.50;99.90
10828;DHT22;5467;59.334;13.512;2022-09-03T12:13:45;13.60;99.90
10828;DHT22;5467;59.334;13.512;2022-09-03T12:16:25;13.60;99.90
10828;DHT22;5467;59.334;13.512;2022-09-03T12:19:02;13.60;99.90
10828;DHT22;5467;59.334;13.512;2022-09-03T12:21:36;13.60;99.90
10828;DHT22;5467;59.334;13.512;2022-09-03T12:24:04;13.60;99.90
10828;DHT22;5467;59.334;13.512;2022-09-03T12:26:38;13.50;99.90
10828;DHT22;5467;59.334;13.512;2022-09-03T12:29:06;13.60;99.90
10828;DHT22;5467;59.334;13.512;2022-09-03T12:31:43;13.60;99.90
10828;DHT22;5467;59.334;13.512;2022-09-03T12:34:14;13.60;99.90
10828;DHT22;5467;59.334;13.512;2022-09-03T12:36:43;13.70;99.90
10828;DHT22;5467;59.334;13.512;2022-09-03T12:39:12;13.80;99.90
10828;DHT22;5467;59.334;13.512;2022-09-03T12:41:53;13.70;99.90
10828;DHT22;5467;59.334;13.512;2022-09-03T12:44:24;13.60;99.90
10828;DHT22;5467;59.334;13.512;2022-09-03T12:47:00;13.60;99.90
10828;DHT22;5467;59.334;13.512;2022-09-03T12:49:33;13.50;99.90
10828;DHT22;5467;59.334;13.512;2022-09-03T12:52:05;13.40;99.90
10828;DHT22;5467;59.334;13.512;2022-09-03T12:54:36;13.60;99.90
10828;DHT22;5467;59.334;13.512;2022-09-03T12:57:08;13.60;99.90
10828;DHT22;5467;59.334;13.512;2022-09-03T12:59:36;13.70;99.90
10828;DHT22;5467;59.334;13.512;2022-09-03T13:02:13;13.80;99.90
10828;DHT22;5467;59.334;13.512;2022-09-03T13:04:43;13.70;99.90
10828;DHT22;5467;59.334;13.512;2022-09-03T13:07:13;13.80;99.90
10828;DHT22;5467;59.334;13.512;2022-09-03T13:09:46;13.90;99.90
10828;DHT22;5467;59.334;13.512;2022-09-03T13:12:27;13.80;99.90
10828;DHT22;5467;59.334;13.512;2022-09-03T13:14:54;13.90;99.90
10828;DHT22;5467;59.334;13.512;2022-09-03T13:17:37;14.00;99.90
10828;DHT22;5467;59.334;13.512;2022-09-03T13:20:23;14.10;99.90
10828;DHT22;5467;59.334;13.512;2022-09-03T13:23:12;14.10;99.90
10828;DHT22;5467;59.334;13.512;2022-09-03T13:25:51;14.00;99.90
10828;DHT22;5467;59.334;13.512;2022-09-03T13:28:33;14.10;99.90
10828;DHT22;5467;59.334;13.512;2022-09-03T13:31:11;14.00;99.90
10828;DHT22;5467;59.334;13.512;2022-09-03T13:33:48;14.00;99.90
10828;DHT22;5467;59.334;13.512;2022-09-03T13:36:20;14.00;99.90
10828;DHT22;5467;59.334;13.512;2022-09-03T13:38:52;14.20;99.90
10828;DHT22;5467;59.334;13.512;2022-09-03T13:41:31;14.20;99.90
10828;DHT22;5467;59.334;13.512;2022-09-03T13:44:06;14.20;99.90
10828;DHT22;5467;59.334;13.512;2022-09-03T13:46:40;14.10;99.90
10828;DHT22;5467;59.334;13.512;2022-09-03T13:49:20;14.10;99.90
10828;DHT22;5467;59.334;13.512;2022-09-03T13:52:12;14.00;99.90
10828;DHT22;5467;59.334;13.512;2022-09-03T13:54:50;14.00;99.90
10828;DHT22;5467;59.334;13.512;2022-09-03T13:57:26;14.00;99.90
10828;DHT22;5467;59.334;13.512;2022-09-03T14:00:00;14.10;99.90
10828;DHT22;5467;59.334;13.512;2022-09-03T14:02:32;14.10;99.90
10828;DHT22;5467;59.334;13.512;2022-09-03T14:05:09;14.10;99.90
10828;DHT22;5467;59.334;13.512;2022-09-03T14:07:46;14.10;99.90
10828;DHT22;5467;59.334;13.512;2022-09-03T14:10:22;14.10;99.90
10828;DHT22;5467;59.334;13.512;2022-09-03T14:12:54;14.00;99.90
10828;DHT22;5467;59.334;13.512;2022-09-03T14:15:32;14.00;99.90
10828;DHT22;5467;59.334;13.512;2022-09-03T14:18:09;14.20;99.90
10828;DHT22;5467;59.334;13.512;2022-09-03T14:20:43;14.20;99.90
10828;DHT22;5467;59.334;13.512;2022-09-03T14:23:25;13.90;99.90
10828;DHT22;5467;59.334;13.512;2022-09-03T14:25:55;14.00;99.90
10828;DHT22;5467;59.334;13.512;2022-09-03T14:28:29;14.20;99.90
10828;DHT22;5467;59.334;13.512;2022-09-03T14:31:07;14.10;99.90
10828;DHT22;5467;59.334;13.512;2022-09-03T14:33:45;14.20;99.90
10828;DHT22;5467;59.334;13.512;2022-09-03T14:36:21;14.20;99.90
10828;DHT22;5467;59.334;13.512;2022-09-03T14:39:19;14.30;99.90
10828;DHT22;5467;59.334;13.512;2022-09-03T14:48:13;14.70;99.90
10828;DHT22;5467;59.334;13.512;2022-09-03T14:50:58;14.50;99.90
10828;DHT22;5467;59.334;13.512;2022-09-03T14:53:50;14.50;99.90
10828;DHT22;5467;59.334;13.512;2022-09-03T14:56:33;14.60;99.90
10828;DHT22;5467;59.334;13.512;2022-09-03T15:02:34;14.40;99.90
10828;DHT22;5467;59.334;13.512;2022-09-03T15:05:11;14.40;99.90
10828;DHT22;5467;59.334;13.512;2022-09-03T15:07:44;14.50;99.90
10828;DHT22;5467;59.334;13.512;2022-09-03T15:10:20;14.40;99.90
10828;DHT22;5467;59.334;13.512;2022-09-03T15:12:56;14.40;99.90
10828;DHT22;5467;59.334;13.512;2022-09-03T15:15:29;14.40;99.90
10828;DHT22;5467;59.334;13.512;2022-09-03T15:18:12;14.40;99.90
10828;DHT22;5467;59.334;13.512;2022-09-03T15:20:48;14.30;99.90
10828;DHT22;5467;59.334;13.512;2022-09-03T15:23:23;14.30;99.90
10828;DHT22;5467;59.334;13.512;2022-09-03T15:26:17;14.30;99.90
10828;DHT22;5467;59.334;13.512;2022-09-03T15:28:56;14.30;99.90
10828;DHT22;5467;59.334;13.512;2022-09-03T15:31:34;14.30;99.90
10828;DHT22;5467;59.334;13.512;2022-09-03T15:34:24;14.30;99.90
10828;DHT22;5467;59.334;13.512;2022-09-03T15:36:59;14.30;99.90
10828;DHT22;5467;59.334;13.512;2022-09-03T15:39:32;14.30;99.90
10828;DHT22;5467;59.334;13.512;2022-09-03T15:42:05;14.20;99.90
10828;DHT22;5467;59.334;13.512;2022-09-03T15:44:36;14.10;99.90
10828;DHT22;5467;59.334;13.512;2022-09-03T15:47:08;14.00;99.90
10828;DHT22;5467;59.334;13.512;2022-09-03T15:49:46;14.00;99.90
10828;DHT22;5467;59.334;13.512;2022-09-03T15:52:30;14.00;99.90
10828;DHT22;5467;59.334;13.512;2022-09-03T15:55:06;14.10;99.90
10828;DHT22;5467;59.334;13.512;2022-09-03T15:57:39;14.10;99.90
10828;DHT22;5467;59.334;13.512;2022-09-03T16:00:10;14.10;99.90
10828;DHT22;5467;59.334;13.512;2022-09-03T16:02:41;14.10;99.90
10828;DHT22;5467;59.334;13.512;2022-09-03T16:05:15;13.90;99.90
10828;DHT22;5467;59.334;13.512;2022-09-03T16:08:09;13.80;99.90
10828;DHT22;5467;59.334;13.512;2022-09-03T16:10:47;13.80;99.90
10828;DHT22;5467;59.334;13.512;2022-09-03T16:13:30;13.70;99.90
10828;DHT22;5467;59.334;13.512;2022-09-03T16:16:01;13.70;99.90